sensor_id;sensor_type;location;lat;lon;timestamp;pressure;altitude;pressure_sealevel;temperature;humidity
34241;BME280;20503;50.200;19.508;2023-05-06T00:01:54;101768.87;;;11.12;68.11
34241;BME280;20503;50.200;19.508;2023-05-06T00:07:01;101769.25;;;11.09;68.02
34241;BME280;20503;50.200;19.508;2023-05-06T00:12:09;101758.09;;;11.11;67.79
34241;BME280;20503;50.200;19.508;2023-05-06T00:17:16;101754.41;;;11.04;68.29
34241;BME280;20503;50.200;19.508;2023-05-06T00:22:24;101754.59;;;11.02;68.16
34241;BME280;20503;50.200;19.508;2023-05-06T00:27:32;101742.69;;;10.95;68.49
34241;BME280;20503;50.200;19.508;2023-05-06T00:32:39;101741.37;;;10.91;68.72
34241;BME280;20503;50.200;19.508;2023-05-06T00:42:59;101724.89;;;10.77;69.44
34241;BME280;20503;50.200;19.508;2023-05-06T00:48:03;101724.49;;;10.65;70.24
34241;BME280;20503;50.200;19.508;2023-05-06T00:53:10;101720.33;;;10.55;70.72
34241;BME280;20503;50.200;19.508;2023-05-06T00:58:18;101728.16;;;10.58;70.53
34241;BME280;20503;50.200;19.508;2023-05-06T01:03:25;101723.62;;;10.50;71.06
34241;BME280;20503;50.200;19.508;2023-05-06T01:13:55;101726.02;;;10.31;71.97
34241;BME280;20503;50.200;19.508;2023-05-06T01:18:59;101709.41;;;10.32;72.00
34241;BME280;20503;50.200;19.508;2023-05-06T01:24:01;101709.78;;;10.29;72.19
34241;BME280;20503;50.200;19.508;2023-05-06T01:29:02;101731.18;;;10.26;72.65
34241;BME280;20503;50.200;19.508;2023-05-06T01:34:17;101725.59;;;10.19;73.05
34241;BME280;20503;50.200;19.508;2023-05-06T01:39:25;101721.60;;;10.07;73.51
34241;BME280;20503;50.200;19.508;2023-05-06T01:44:32;101723.30;;;10.00;74.22
34241;BME280;20503;50.200;19.508;2023-05-06T01:49:34;101709.33;;;9.95;75.04
34241;BME280;20503;50.200;19.508;2023-05-06T01:54:40;101715.54;;;9.89;75.09
34241;BME280;20503;50.200;19.508;2023-05-06T01:59:48;101715.88;;;9.86;75.26
34241;BME280;20503;50.200;19.508;2023-05-06T02:04:57;101705.50;;;9.82;75.60
34241;BME280;20503;50.200;19.508;2023-05-06T02:10:05;101704.34;;;9.76;75.95
34241;BME280;20503;50.200;19.508;2023-05-06T02:15:11;101704.27;;;9.84;75.41
34241;BME280;20503;50.200;19.508;2023-05-06T02:20:18;101702.93;;;9.80;75.87
34241;BME280;20503;50.200;19.508;2023-05-06T02:25:26;101695.77;;;9.79;75.62
34241;BME280;20503;50.200;19.508;2023-05-06T02:30:33;101689.56;;;9.85;75.38
34241;BME280;20503;50.200;19.508;2023-05-06T02:35:41;101664.13;;;9.85;75.26
34241;BME280;20503;50.200;19.508;2023-05-06T02:40:48;101673.16;;;9.85;75.16
34241;BME280;20503;50.200;19.508;2023-05-06T02:45:56;101669.75;;;9.83;75.40
34241;BME280;20503;50.200;19.508;2023-05-06T02:51:04;101666.86;;;9.85;75.46
34241;BME280;20503;50.200;19.508;2023-05-06T02:56:11;101665.70;;;9.79;75.89
34241;BME280;20503;50.200;19.508;2023-05-06T03:01:19;101678.87;;;9.76;76.20
34241;BME280;20503;50.200;19.508;2023-05-06T03:06:26;101684.53;;;9.74;76.29
34241;BME280;20503;50.200;19.508;2023-05-06T03:11:34;101667.27;;;9.74;76.30
34241;BME280;20503;50.200;19.508;2023-05-06T03:16:42;101661.26;;;9.78;75.78
34241;BME280;20503;50.200;19.508;2023-05-06T03:21:50;101674.27;;;9.76;75.89
34241;BME280;20503;50.200;19.508;2023-05-06T03:26:57;101663.13;;;9.78;75.71
34241;BME280;20503;50.200;19.508;2023-05-06T03:32:05;101644.36;;;9.75;76.04
34241;BME280;20503;50.200;19.508;2023-05-06T03:37:13;101650.32;;;9.78;75.75
34241;BME280;20503;50.200;19.508;2023-05-06T03:42:20;101649.13;;;9.81;75.64
34241;BME280;20503;50.200;19.508;2023-05-06T03:47:28;101672.56;;;9.75;75.90
34241;BME280;20503;50.200;19.508;2023-05-06T03:52:35;101662.66;;;9.74;76.30
34241;BME280;20503;50.200;19.508;2023-05-06T03:57:43;101665.19;;;9.76;76.33
34241;BME280;20503;50.200;19.508;2023-05-06T04:02:50;101676.33;;;9.74;76.78
34241;BME280;20503;50.200;19.508;2023-05-06T04:07:58;101665.02;;;9.77;76.78
34241;BME280;20503;50.200;19.508;2023-05-06T04:13:06;101671.99;;;9.80;76.79
34241;BME280;20503;50.200;19.508;2023-05-06T04:18:13;101676.63;;;9.79;76.74
34241;BME280;20503;50.200;19.508;2023-05-06T04:23:21;101673.89;;;9.79;76.80
34241;BME280;20503;50.200;19.508;2023-05-06T04:28:28;101687.87;;;9.84;76.90
34241;BME280;20503;50.200;19.508;2023-05-06T04:33:36;101680.70;;;9.83;77.01
34241;BME280;20503;50.200;19.508;2023-05-06T04:38:44;101679.12;;;9.89;76.34
34241;BME280;20503;50.200;19.508;2023-05-06T04:43:52;101676.67;;;9.94;76.64
34241;BME280;20503;50.200;19.508;2023-05-06T04:49:00;101675.10;;;9.99;76.67
34241;BME280;20503;50.200;19.508;2023-05-06T04:54:08;101671.11;;;10.10;76.39
34241;BME280;20503;50.200;19.508;2023-05-06T04:59:19;101663.57;;;10.12;76.13
34241;BME280;20503;50.200;19.508;2023-05-06T05:04:25;101649.89;;;10.12;75.93
34241;BME280;20503;50.200;19.508;2023-05-06T05:09:33;101648.80;;;10.21;76.32
34241;BME280;20503;50.200;19.508;2023-05-06T05:14:39;101650.33;;;10.23;76.00
34241;BME280;20503;50.200;19.508;2023-05-06T05:19:47;101656.48;;;10.40;76.25
34241;BME280;20503;50.200;19.508;2023-05-06T05:24:55;101642.03;;;10.46;75.54
34241;BME280;20503;50.200;19.508;2023-05-06T05:30:03;101643.02;;;10.96;74.05
34241;BME280;20503;50.200;19.508;2023-05-06T05:35:10;101649.56;;;11.45;72.00
34241;BME280;20503;50.200;19.508;2023-05-06T05:40:18;101666.73;;;11.68;71.04
34241;BME280;20503;50.200;19.508;2023-05-06T05:45:25;101667.02;;;11.73;71.44
34241;BME280;20503;50.200;19.508;2023-05-06T05:50:32;101656.15;;;11.65;70.81
34241;BME280;20503;50.200;19.508;2023-05-06T05:55:40;101666.05;;;11.80;70.01
34241;BME280;20503;50.200;19.508;2023-05-06T06:00:47;101650.69;;;12.07;70.01
34241;BME280;20503;50.200;19.508;2023-05-06T06:05:55;101652.88;;;12.18;68.44
34241;BME280;20503;50.200;19.508;2023-05-06T06:11:02;101654.02;;;12.02;69.30
34241;BME280;20503;50.200;19.508;2023-05-06T06:16:10;101644.87;;;12.16;69.19
34241;BME280;20503;50.200;19.508;2023-05-06T06:21:18;101638.95;;;12.95;67.72
34241;BME280;20503;50.200;19.508;2023-05-06T06:26:26;101629.01;;;13.47;65.00
34241;BME280;20503;50.200;19.508;2023-05-06T06:31:34;101642.38;;;13.04;66.27
34241;BME280;20503;50.200;19.508;2023-05-06T06:36:42;101637.02;;;13.36;65.94
34241;BME280;20503;50.200;19.508;2023-05-06T06:41:50;101636.28;;;13.14;65.68
34241;BME280;20503;50.200;19.508;2023-05-06T06:46:58;101632.16;;;13.38;65.26
34241;BME280;20503;50.200;19.508;2023-05-06T06:52:06;101637.82;;;13.96;63.68
34241;BME280;20503;50.200;19.508;2023-05-06T06:57:14;101632.30;;;13.77;64.50
34241;BME280;20503;50.200;19.508;2023-05-06T07:02:21;101633.29;;;13.56;65.22
34241;BME280;20503;50.200;19.508;2023-05-06T07:07:29;101619.09;;;13.53;65.91
34241;BME280;20503;50.200;19.508;2023-05-06T07:12:37;101614.31;;;13.87;64.62
34241;BME280;20503;50.200;19.508;2023-05-06T07:17:45;101597.13;;;13.66;65.76
34241;BME280;20503;50.200;19.508;2023-05-06T07:22:52;101599.27;;;13.77;65.35
34241;BME280;20503;50.200;19.508;2023-05-06T07:28:00;101590.59;;;14.12;65.53
34241;BME280;20503;50.200;19.508;2023-05-06T07:33:08;101590.87;;;14.17;64.30
34241;BME280;20503;50.200;19.508;2023-05-06T07:38:16;101589.14;;;14.16;64.90
34241;BME280;20503;50.200;19.508;2023-05-06T07:43:24;101580.62;;;14.63;64.82
34241;BME280;20503;50.200;19.508;2023-05-06T07:48:32;101588.52;;;14.21;65.61
34241;BME280;20503;50.200;19.508;2023-05-06T07:53:40;101582.38;;;14.32;65.31
34241;BME280;20503;50.200;19.508;2023-05-06T07:58:48;101575.11;;;14.63;65.45
34241;BME280;20503;50.200;19.508;2023-05-06T08:03:56;101574.10;;;14.45;65.94
34241;BME280;20503;50.200;19.508;2023-05-06T08:09:04;101572.60;;;14.55;65.74
34241;BME280;20503;50.200;19.508;2023-05-06T08:14:12;101571.09;;;14.59;66.00
34241;BME280;20503;50.200;19.508;2023-05-06T08:19:20;101579.99;;;14.61;64.82
34241;BME280;20503;50.200;19.508;2023-05-06T08:24:28;101572.00;;;15.10;64.38
34241;BME280;20503;50.200;19.508;2023-05-06T08:29:36;101577.63;;;14.84;65.08
34241;BME280;20503;50.200;19.508;2023-05-06T08:34:43;101570.16;;;14.91;65.34
34241;BME280;20503;50.200;19.508;2023-05-06T08:39:51;101575.09;;;14.76;66.12
34241;BME280;20503;50.200;19.508;2023-05-06T08:44:59;101567.87;;;14.82;66.23
34241;BME280;20503;50.200;19.508;2023-05-06T08:50:09;101563.78;;;14.91;65.78
34241;BME280;20503;50.200;19.508;2023-05-06T08:55:16;101560.24;;;14.77;66.03
34241;BME280;20503;50.200;19.508;2023-05-06T09:00:24;101553.70;;;15.22;65.56
34241;BME280;20503;50.200;19.508;2023-05-06T09:05:32;101557.77;;;14.56;66.97
34241;BME280;20503;50.200;19.508;2023-05-06T09:10:44;101557.14;;;14.41;67.49
34241;BME280;20503;50.200;19.508;2023-05-06T09:15:52;101542.01;;;14.76;66.74
34241;BME280;20503;50.200;19.508;2023-05-06T09:20:56;101539.24;;;14.76;68.21
34241;BME280;20503;50.200;19.508;2023-05-06T09:26:04;101522.67;;;14.89;68.86
34241;BME280;20503;50.200;19.508;2023-05-06T09:31:15;101509.71;;;14.90;68.44
34241;BME280;20503;50.200;19.508;2023-05-06T09:36:22;101501.91;;;14.80;69.59
34241;BME280;20503;50.200;19.508;2023-05-06T09:41:28;101498.73;;;14.83;68.81
34241;BME280;20503;50.200;19.508;2023-05-06T09:46:36;101476.77;;;14.57;69.81
34241;BME280;20503;50.200;19.508;2023-05-06T09:51:44;101466.04;;;14.36;71.11
34241;BME280;20503;50.200;19.508;2023-05-06T09:56:53;101484.50;;;14.16;72.42
34241;BME280;20503;50.200;19.508;2023-05-06T10:02:01;101501.03;;;14.10;76.25
34241;BME280;20503;50.200;19.508;2023-05-06T10:07:09;101509.64;;;13.22;100.00
34241;BME280;20503;50.200;19.508;2023-05-06T10:12:16;101515.95;;;12.63;100.00
34241;BME280;20503;50.200;19.508;2023-05-06T10:17:24;101522.32;;;12.36;100.00
34241;BME280;20503;50.200;19.508;2023-05-06T10:27:45;101506.95;;;12.42;100.00
34241;BME280;20503;50.200;19.508;2023-05-06T10:32:49;101517.05;;;12.82;100.00
34241;BME280;20503;50.200;19.508;2023-05-06T10:37:54;101522.05;;;12.99;100.00
34241;BME280;20503;50.200;19.508;2023-05-06T10:48:16;101563.73;;;12.69;100.00
34241;BME280;20503;50.200;19.508;2023-05-06T10:58:34;101562.08;;;12.81;100.00
34241;BME280;20503;50.200;19.508;2023-05-06T11:03:36;101538.52;;;12.59;100.00
34241;BME280;20503;50.200;19.508;2023-05-06T11:08:42;101541.91;;;12.27;100.00
34241;BME280;20503;50.200;19.508;2023-05-06T11:13:51;101521.54;;;12.15;100.00
34241;BME280;20503;50.200;19.508;2023-05-06T11:18:59;101512.08;;;11.90;100.00
34241;BME280;20503;50.200;19.508;2023-05-06T11:24:10;101502.44;;;11.73;100.00
34241;BME280;20503;50.200;19.508;2023-05-06T11:29:21;101487.80;;;11.45;100.00
34241;BME280;20503;50.200;19.508;2023-05-06T11:34:32;101500.40;;;11.39;100.00
34241;BME280;20503;50.200;19.508;2023-05-06T11:39:47;101496.76;;;11.32;100.00
34241;BME280;20503;50.200;19.508;2023-05-06T11:44:53;101502.67;;;11.36;100.00
34241;BME280;20503;50.200;19.508;2023-05-06T11:50:04;101498.24;;;11.35;100.00
34241;BME280;20503;50.200;19.508;2023-05-06T11:55:14;101478.00;;;11.36;100.00
34241;BME280;20503;50.200;19.508;2023-05-06T12:00:25;101486.63;;;11.33;100.00
34241;BME280;20503;50.200;19.508;2023-05-06T12:05:36;101498.92;;;11.37;100.00
34241;BME280;20503;50.200;19.508;2023-05-06T12:10:46;101501.20;;;11.33;100.00
34241;BME280;20503;50.200;19.508;2023-05-06T12:15:58;101482.58;;;11.29;100.00
34241;BME280;20503;50.200;19.508;2023-05-06T12:21:09;101480.90;;;11.28;100.00
34241;BME280;20503;50.200;19.508;2023-05-06T12:26:19;101470.58;;;11.30;100.00
34241;BME280;20503;50.200;19.508;2023-05-06T12:31:29;101457.13;;;11.35;100.00
34241;BME280;20503;50.200;19.508;2023-05-06T12:36:42;101464.30;;;11.36;100.00
34241;BME280;20503;50.200;19.508;2023-05-06T12:41:51;101452.10;;;11.38;100.00
34241;BME280;20503;50.200;19.508;2023-05-06T12:47:06;101455.55;;;11.47;100.00
34241;BME280;20503;50.200;19.508;2023-05-06T12:52:13;101453.28;;;11.50;100.00
34241;BME280;20503;50.200;19.508;2023-05-06T12:57:23;101454.84;;;11.59;100.00
34241;BME280;20503;50.200;19.508;2023-05-06T13:02:34;101449.17;;;11.61;100.00
34241;BME280;20503;50.200;19.508;2023-05-06T13:07:45;101456.65;;;11.73;100.00
34241;BME280;20503;50.200;19.508;2023-05-06T13:12:56;101472.11;;;11.81;100.00
34241;BME280;20503;50.200;19.508;2023-05-06T13:18:07;101480.27;;;12.02;100.00
34241;BME280;20503;50.200;19.508;2023-05-06T13:23:18;101502.58;;;11.92;100.00
34241;BME280;20503;50.200;19.508;2023-05-06T13:28:28;101497.03;;;11.86;100.00
34241;BME280;20503;50.200;19.508;2023-05-06T13:33:39;101498.55;;;11.88;100.00
34241;BME280;20503;50.200;19.508;2023-05-06T13:38:49;101493.52;;;11.92;100.00
34241;BME280;20503;50.200;19.508;2023-05-06T13:44:00;101498.19;;;11.98;100.00
34241;BME280;20503;50.200;19.508;2023-05-06T13:49:12;101490.83;;;11.98;100.00
34241;BME280;20503;50.200;19.508;2023-05-06T13:54:21;101485.39;;;12.05;100.00
34241;BME280;20503;50.200;19.508;2023-05-06T13:59:32;101474.23;;;12.13;100.00
34241;BME280;20503;50.200;19.508;2023-05-06T14:04:43;101471.99;;;12.23;100.00
34241;BME280;20503;50.200;19.508;2023-05-06T14:09:54;101470.52;;;12.27;100.00
34241;BME280;20503;50.200;19.508;2023-05-06T14:15:06;101476.25;;;12.32;100.00
34241;BME280;20503;50.200;19.508;2023-05-06T14:20:15;101477.38;;;12.44;100.00
34241;BME280;20503;50.200;19.508;2023-05-06T14:25:26;101467.00;;;12.39;100.00
34241;BME280;20503;50.200;19.508;2023-05-06T14:30:37;101466.27;;;12.65;100.00
34241;BME280;20503;50.200;19.508;2023-05-06T14:35:48;101466.14;;;12.79;100.00
34241;BME280;20503;50.200;19.508;2023-05-06T14:40:59;101453.47;;;12.91;100.00
34241;BME280;20503;50.200;19.508;2023-05-06T14:46:09;101461.23;;;13.34;100.00
34241;BME280;20503;50.200;19.508;2023-05-06T14:51:20;101463.15;;;13.53;100.00
34241;BME280;20503;50.200;19.508;2023-05-06T14:56:31;101472.23;;;13.28;100.00
34241;BME280;20503;50.200;19.508;2023-05-06T15:01:41;101473.03;;;13.22;100.00
34241;BME280;20503;50.200;19.508;2023-05-06T15:06:52;101471.49;;;12.94;100.00
34241;BME280;20503;50.200;19.508;2023-05-06T15:12:03;101480.22;;;13.10;100.00
34241;BME280;20503;50.200;19.508;2023-05-06T15:17:14;101478.18;;;13.70;100.00
34241;BME280;20503;50.200;19.508;2023-05-06T15:22:24;101473.08;;;13.80;100.00
34241;BME280;20503;50.200;19.508;2023-05-06T15:27:35;101483.45;;;14.04;100.00
34241;BME280;20503;50.200;19.508;2023-05-06T15:32:46;101481.33;;;13.87;100.00
34241;BME280;20503;50.200;19.508;2023-05-06T15:37:57;101480.05;;;13.57;100.00
34241;BME280;20503;50.200;19.508;2023-05-06T15:43:07;101488.73;;;13.54;100.00
34241;BME280;20503;50.200;19.508;2023-05-06T15:48:18;101488.30;;;13.37;100.00
34241;BME280;20503;50.200;19.508;2023-05-06T15:53:29;101490.39;;;13.22;100.00
34241;BME280;20503;50.200;19.508;2023-05-06T15:58:41;101488.24;;;13.12;100.00
34241;BME280;20503;50.200;19.508;2023-05-06T16:03:51;101488.06;;;13.19;100.00
34241;BME280;20503;50.200;19.508;2023-05-06T16:09:01;101487.16;;;13.06;100.00
34241;BME280;20503;50.200;19.508;2023-05-06T16:14:12;101487.22;;;13.25;100.00
34241;BME280;20503;50.200;19.508;2023-05-06T16:19:23;101484.87;;;13.16;100.00
34241;BME280;20503;50.200;19.508;2023-05-06T16:24:33;101490.78;;;13.07;100.00
34241;BME280;20503;50.200;19.508;2023-05-06T16:29:45;101490.73;;;12.94;100.00
34241;BME280;20503;50.200;19.508;2023-05-06T16:34:55;101496.45;;;12.99;100.00
34241;BME280;20503;50.200;19.508;2023-05-06T16:40:07;101497.84;;;12.82;100.00
34241;BME280;20503;50.200;19.508;2023-05-06T16:45:16;101501.66;;;12.87;100.00
34241;BME280;20503;50.200;19.508;2023-05-06T16:50:27;101506.45;;;12.72;100.00
34241;BME280;20503;50.200;19.508;2023-05-06T16:56:09;101507.54;;;12.78;100.00
34241;BME280;20503;50.200;19.508;2023-05-06T17:01:20;101505.11;;;12.55;100.00
34241;BME280;20503;50.200;19.508;2023-05-06T17:06:31;101501.56;;;12.68;100.00
34241;BME280;20503;50.200;19.508;2023-05-06T17:11:42;101500.21;;;12.51;100.00
34241;BME280;20503;50.200;19.508;2023-05-06T17:16:52;101494.72;;;12.51;100.00
34241;BME280;20503;50.200;19.508;2023-05-06T17:22:03;101499.35;;;12.44;100.00
34241;BME280;20503;50.200;19.508;2023-05-06T17:27:14;101500.95;;;12.32;100.00
34241;BME280;20503;50.200;19.508;2023-05-06T17:32:25;101514.69;;;12.32;100.00
34241;BME280;20503;50.200;19.508;2023-05-06T17:37:35;101517.02;;;12.35;100.00
34241;BME280;20503;50.200;19.508;2023-05-06T17:42:46;101517.02;;;12.35;100.00
34241;BME280;20503;50.200;19.508;2023-05-06T17:47:57;101521.86;;;12.33;100.00
34241;BME280;20503;50.200;19.508;2023-05-06T17:53:07;101515.32;;;12.34;100.00
34241;BME280;20503;50.200;19.508;2023-05-06T17:58:18;101519.94;;;12.27;100.00
34241;BME280;20503;50.200;19.508;2023-05-06T18:03:29;101522.68;;;12.27;100.00
34241;BME280;20503;50.200;19.508;2023-05-06T18:08:39;101523.09;;;12.24;100.00
34241;BME280;20503;50.200;19.508;2023-05-06T18:13:50;101528.77;;;12.22;100.00
34241;BME280;20503;50.200;19.508;2023-05-06T18:19:01;101524.88;;;12.10;100.00
34241;BME280;20503;50.200;19.508;2023-05-06T18:24:12;101535.38;;;12.00;100.00
34241;BME280;20503;50.200;19.508;2023-05-06T18:29:23;101513.71;;;11.84;100.00
34241;BME280;20503;50.200;19.508;2023-05-06T18:34:33;101538.52;;;11.97;100.00
34241;BME280;20503;50.200;19.508;2023-05-06T18:39:44;101553.95;;;11.98;100.00
34241;BME280;20503;50.200;19.508;2023-05-06T18:44:55;101547.38;;;11.72;100.00
34241;BME280;20503;50.200;19.508;2023-05-06T18:50:07;101555.08;;;11.62;100.00
34241;BME280;20503;50.200;19.508;2023-05-06T18:55:16;101556.74;;;11.42;100.00
34241;BME280;20503;50.200;19.508;2023-05-06T19:00:27;101551.19;;;11.35;100.00
34241;BME280;20503;50.200;19.508;2023-05-06T19:05:38;101559.59;;;11.34;100.00
34241;BME280;20503;50.200;19.508;2023-05-06T19:10:49;101572.72;;;11.38;100.00
34241;BME280;20503;50.200;19.508;2023-05-06T19:15:59;101580.77;;;11.40;100.00
34241;BME280;20503;50.200;19.508;2023-05-06T19:21:11;101581.02;;;11.45;100.00
34241;BME280;20503;50.200;19.508;2023-05-06T19:26:21;101590.47;;;11.42;100.00
34241;BME280;20503;50.200;19.508;2023-05-06T19:31:32;101593.43;;;11.41;100.00
34241;BME280;20503;50.200;19.508;2023-05-06T19:36:43;101590.40;;;11.36;100.00
34241;BME280;20503;50.200;19.508;2023-05-06T19:41:53;101592.12;;;11.37;100.00
34241;BME280;20503;50.200;19.508;2023-05-06T19:47:04;101591.84;;;11.32;100.00
34241;BME280;20503;50.200;19.508;2023-05-06T19:52:15;101592.12;;;11.37;100.00
34241;BME280;20503;50.200;19.508;2023-05-06T19:57:25;101596.27;;;11.33;100.00
34241;BME280;20503;50.200;19.508;2023-05-06T20:02:37;101599.14;;;11.25;100.00
34241;BME280;20503;50.200;19.508;2023-05-06T20:07:47;101605.45;;;11.25;100.00
34241;BME280;20503;50.200;19.508;2023-05-06T20:12:58;101595.35;;;11.26;100.00
34241;BME280;20503;50.200;19.508;2023-05-06T20:18:08;101606.80;;;11.29;100.00
34241;BME280;20503;50.200;19.508;2023-05-06T20:23:19;101604.88;;;11.30;100.00
34241;BME280;20503;50.200;19.508;2023-05-06T20:28:30;101612.93;;;11.31;100.00
34241;BME280;20503;50.200;19.508;2023-05-06T20:33:41;101614.54;;;11.26;100.00
34241;BME280;20503;50.200;19.508;2023-05-06T20:38:51;101617.37;;;11.32;100.00
34241;BME280;20503;50.200;19.508;2023-05-06T20:44:02;101610.76;;;11.27;100.00
34241;BME280;20503;50.200;19.508;2023-05-06T20:49:13;101612.46;;;11.28;100.00
34241;BME280;20503;50.200;19.508;2023-05-06T20:54:24;101625.12;;;11.29;100.00
34241;BME280;20503;50.200;19.508;2023-05-06T20:59:34;101615.11;;;11.21;100.00
34241;BME280;20503;50.200;19.508;2023-05-06T21:04:45;101620.30;;;11.31;100.00
34241;BME280;20503;50.200;19.508;2023-05-06T21:09:56;101621.64;;;11.20;100.00
34241;BME280;20503;50.200;19.508;2023-05-06T21:15:07;101630.73;;;11.21;100.00
34241;BME280;20503;50.200;19.508;2023-05-06T21:20:17;101640.34;;;11.17;100.00
34241;BME280;20503;50.200;19.508;2023-05-06T21:25:28;101632.13;;;11.17;100.00
34241;BME280;20503;50.200;19.508;2023-05-06T21:30:39;101644.69;;;11.26;100.00
34241;BME280;20503;50.200;19.508;2023-05-06T21:35:50;101642.34;;;11.23;100.00
34241;BME280;20503;50.200;19.508;2023-05-06T21:41:01;101640.73;;;11.28;100.00
34241;BME280;20503;50.200;19.508;2023-05-06T21:46:11;101640.64;;;11.22;100.00
34241;BME280;20503;50.200;19.508;2023-05-06T21:51:23;101643.48;;;11.28;100.00
34241;BME280;20503;50.200;19.508;2023-05-06T21:56:33;101646.30;;;11.20;100.00
34241;BME280;20503;50.200;19.508;2023-05-06T22:01:43;101649.22;;;11.19;100.00
34241;BME280;20503;50.200;19.508;2023-05-06T22:06:54;101640.73;;;11.14;100.00
34241;BME280;20503;50.200;19.508;2023-05-06T22:12:05;101641.89;;;11.05;100.00
34241;BME280;20503;50.200;19.508;2023-05-06T22:17:16;101645.95;;;11.09;100.00
34241;BME280;20503;50.200;19.508;2023-05-06T22:22:27;101640.17;;;11.18;100.00
34241;BME280;20503;50.200;19.508;2023-05-06T22:27:37;101645.38;;;11.14;100.00
34241;BME280;20503;50.200;19.508;2023-05-06T22:32:48;101647.65;;;11.10;100.00
34241;BME280;20503;50.200;19.508;2023-05-06T22:37:59;101645.30;;;11.07;100.00
34241;BME280;20503;50.200;19.508;2023-05-06T22:43:09;101648.69;;;11.09;100.00
34241;BME280;20503;50.200;19.508;2023-05-06T22:48:20;101646.51;;;11.05;100.00
34241;BME280;20503;50.200;19.508;2023-05-06T22:53:31;101642.99;;;11.11;100.00
34241;BME280;20503;50.200;19.508;2023-05-06T22:58:42;101643.59;;;11.06;100.00
34241;BME280;20503;50.200;19.508;2023-05-06T23:03:52;101646.51;;;11.05;100.00
34241;BME280;20503;50.200;19.508;2023-05-06T23:09:03;101641.30;;;11.10;100.00
34241;BME280;20503;50.200;19.508;2023-05-06T23:14:14;101652.58;;;10.86;100.00
34241;BME280;20503;50.200;19.508;2023-05-06T23:19:25;101659.08;;;10.85;100.00
34241;BME280;20503;50.200;19.508;2023-05-06T23:24:35;101658.50;;;10.75;100.00
34241;BME280;20503;50.200;19.508;2023-05-06T23:29:46;101662.39;;;10.80;100.00
34241;BME280;20503;50.200;19.508;2023-05-06T23:34:57;101666.92;;;10.73;100.00
34241;BME280;20503;50.200;19.508;2023-05-06T23:40:08;101667.82;;;10.51;100.00
34241;BME280;20503;50.200;19.508;2023-05-06T23:45:19;101662.05;;;10.32;100.00
34241;BME280;20503;50.200;19.508;2023-05-06T23:50:30;101671.06;;;10.18;100.00
34241;BME280;20503;50.200;19.508;2023-05-06T23:55:41;101665.39;;;10.19;100.00
